Time;durP1;ratioP1;P1;durP2;ratioP2;P2;SDS_P1;SDS_P2;PMS_P1;PMS_P2;Temp;Humidity;BMP_temperature;BMP_pressure;BME280_temperature;BME280_humidity;BME280_pressure;Samples;Min_cycle;Max_cycle;Signal;HPM_P1;HPM_P2
2023/10/18 00:00:28;;;;;;;;;;;;;;;5.03;73.19;101447.25;4218257;28;20023;-69
2023/10/18 00:02:30;;;;;;;;;;;;;;;5.03;73.54;101447.25;4219164;27;19976;-69
2023/10/18 00:04:33;;;;;;;;;;;;;;;5.05;73.69;101455.19;4219316;28;20019;-68
2023/10/18 00:06:35;;;;;;;;;;;;;;;5.04;73.90;101448.09;4219222;28;20027;-69
2023/10/18 00:08:40;;;;;;;;;;;;;;;5.04;73.76;101450.78;4182825;28;20019;-70
2023/10/18 00:10:42;;;;;;;;;;;;;;;5.01;73.46;101445.69;4218521;28;20014;-69
2023/10/18 00:12:44;;;;;;;;;;;;;;;4.93;73.44;101430.22;4218309;28;20022;-70
2023/10/18 00:14:45;;;;;;;;;;;;;;;4.95;73.38;101432.78;4220258;28;20016;-69
2023/10/18 00:16:47;;;;;;;;;;;;;;;4.98;73.50;101429.84;4218967;28;19924;-69
2023/10/18 00:18:48;;;;;;;;;;;;;;;4.99;73.57;101436.94;4219430;28;20058;-70
2023/10/18 00:20:58;;;;;;;;;;;;;;;4.97;73.47;101439.72;4219028;28;20023;-70
2023/10/18 00:23:00;;;;;;;;;;;;;;;4.93;73.20;101432.91;4218608;28;19967;-69
2023/10/18 00:25:03;;;;;;;;;;;;;;;4.88;73.33;101433.28;4220212;28;20030;-70
2023/10/18 00:27:05;;;;;;;;;;;;;;;4.88;73.35;101433.28;4201715;28;20034;-70
2023/10/18 00:29:08;;;;;;;;;;;;;;;4.89;73.35;101434.16;4218459;28;20015;-69
2023/10/18 00:31:12;;;;;;;;;;;;;;;4.89;72.90;101436.81;4214764;28;20556;-69
2023/10/18 00:33:15;;;;;;;;;;;;;;;4.87;72.85;101436.06;4219059;28;20019;-69
2023/10/18 00:35:20;;;;;;;;;;;;;;;4.84;72.75;101434.50;4219752;28;20018;-70
2023/10/18 00:37:21;;;;;;;;;;;;;;;4.79;72.87;101436.69;4217844;28;20800;-69
2023/10/18 00:39:27;;;;;;;;;;;;;;;4.74;73.00;101427.34;4216515;28;20019;-70
2023/10/18 00:41:34;;;;;;;;;;;;;;;4.73;73.54;101425.63;4219356;28;19978;-69
2023/10/18 00:43:36;;;;;;;;;;;;;;;4.71;73.29;101431.09;4217308;28;20012;-70
2023/10/18 00:45:43;;;;;;;;;;;;;;;4.69;73.24;101431.22;4216715;28;20020;-70
2023/10/18 00:47:45;;;;;;;;;;;;;;;4.61;73.14;101422.94;4219633;28;20396;-69
2023/10/18 00:49:46;;;;;;;;;;;;;;;4.57;73.05;101420.63;4218026;28;20472;-69
2023/10/18 00:51:49;;;;;;;;;;;;;;;4.52;73.44;101423.69;4215826;28;20612;-69
2023/10/18 00:53:52;;;;;;;;;;;;;;;4.51;73.87;101417.47;4216573;28;20610;-69
2023/10/18 00:55:57;;;;;;;;;;;;;;;4.51;74.20;101416.63;4218741;28;20006;-69
2023/10/18 00:58:01;;;;;;;;;;;;;;;4.52;74.19;101421.00;4219177;28;20019;-69
2023/10/18 01:00:07;;;;;;;;;;;;;;;4.53;73.88;101417.38;4217385;28;20046;-71
2023/10/18 01:02:11;;;;;;;;;;;;;;;4.52;74.12;101415.66;4222206;28;20018;-70
2023/10/18 01:04:13;;;;;;;;;;;;;;;4.54;74.02;101416.38;4202259;28;20035;-69
2023/10/18 01:06:16;;;;;;;;;;;;;;;4.51;73.56;101419.28;4206212;28;20012;-70
2023/10/18 01:08:21;;;;;;;;;;;;;;;4.52;73.36;101418.31;4204148;28;20023;-69
2023/10/18 01:10:24;;;;;;;;;;;;;;;4.54;73.53;101418.22;4203299;28;20019;-69
2023/10/18 01:12:29;;;;;;;;;;;;;;;4.48;73.39;101415.06;4236469;27;20022;-70
2023/10/18 01:14:32;;;;;;;;;;;;;;;4.46;73.48;101414.31;4237794;27;20032;-69
2023/10/18 01:16:36;;;;;;;;;;;;;;;4.44;73.39;101416.25;4204193;28;20086;-69
2023/10/18 01:18:37;;;;;;;;;;;;;;;4.45;73.57;101415.28;4222130;28;20031;-69
2023/10/18 01:20:40;;;;;;;;;;;;;;;4.43;73.69;101419.06;4221393;28;20352;-70
2023/10/18 01:22:42;;;;;;;;;;;;;;;4.41;73.84;101413.81;4220736;28;20212;-69
2023/10/18 01:24:46;;;;;;;;;;;;;;;4.41;73.89;101411.16;4220429;28;20405;-69
2023/10/18 01:26:47;;;;;;;;;;;;;;;4.43;74.01;101421.72;4220857;28;20014;-69
2023/10/18 01:28:51;;;;;;;;;;;;;;;4.43;73.84;101413.69;4220982;28;20035;-69
2023/10/18 01:30:52;;;;;;;;;;;;;;;4.42;73.80;101412.84;4200252;28;20497;-69
2023/10/18 01:32:54;;;;;;;;;;;;;;;4.40;73.30;101408.59;4220902;28;19932;-70
2023/10/18 01:34:57;;;;;;;;;;;;;;;4.37;73.09;101400.81;4207624;28;19925;-69
2023/10/18 01:36:59;;;;;;;;;;;;;;;4.35;73.14;101397.41;4220799;28;20022;-70
2023/10/18 01:39:00;;;;;;;;;;;;;;;4.35;73.16;101398.25;4222041;28;20023;-70
2023/10/18 01:41:09;;;;;;;;;;;;;;;4.38;73.11;101399.84;4221161;28;19931;-69
2023/10/18 01:43:11;;;;;;;;;;;;;;;4.37;73.12;101404.31;4219562;28;20019;-69
2023/10/18 01:45:21;;;;;;;;;;;;;;;4.35;73.15;101397.41;4199024;28;20410;-69
2023/10/18 01:47:25;;;;;;;;;;;;;;;4.33;73.40;101400.19;4220976;28;20410;-70
2023/10/18 01:49:26;;;;;;;;;;;;;;;4.36;73.69;101397.28;4220050;28;20019;-71
2023/10/18 01:51:28;;;;;;;;;;;;;;;4.37;74.12;101390.94;4221474;28;20625;-69
2023/10/18 01:53:31;;;;;;;;;;;;;;;4.38;74.02;101387.31;4219503;28;20015;-70
2023/10/18 01:55:35;;;;;;;;;;;;;;;4.39;74.02;101390.81;4221571;28;20027;-70
2023/10/18 01:57:38;;;;;;;;;;;;;;;4.33;73.64;101376.97;4203865;28;20023;-69
2023/10/18 01:59:40;;;;;;;;;;;;;;;4.36;73.83;101377.69;4222225;28;20023;-70
2023/10/18 02:01:44;;;;;;;;;;;;;;;4.33;73.60;101382.31;4217881;28;20007;-70
2023/10/18 02:03:50;;;;;;;;;;;;;;;4.33;73.48;101371.63;4203849;28;20346;-70
2023/10/18 02:05:54;;;;;;;;;;;;;;;4.33;73.34;101373.47;4221361;28;19981;-70
2023/10/18 02:07:57;;;;;;;;;;;;;;;4.32;73.47;101371.75;4214503;28;20027;-70
2023/10/18 02:09:59;;;;;;;;;;;;;;;4.28;73.42;101372.97;4219762;28;20018;-70
2023/10/18 02:12:01;;;;;;;;;;;;;;;4.28;73.48;101371.16;4220290;28;20007;-70
2023/10/18 02:14:06;;;;;;;;;;;;;;;4.28;73.33;101364.97;4221480;28;20023;-69
2023/10/18 02:16:14;;;;;;;;;;;;;;;4.26;73.78;101359.72;4235709;27;20055;-70
2023/10/18 02:18:16;;;;;;;;;;;;;;;4.24;73.79;101358.97;4220950;28;20014;-70
2023/10/18 02:20:26;;;;;;;;;;;;;;;4.23;73.92;101368.00;4220390;28;20018;-70
2023/10/18 02:22:28;;;;;;;;;;;;;;;4.24;74.06;101360.81;4220919;28;20023;-70
2023/10/18 02:24:30;;;;;;;;;;;;;;;4.28;74.31;101362.28;4219186;28;20028;-71
2023/10/18 02:26:32;;;;;;;;;;;;;;;4.28;74.31;101351.59;4221291;28;19928;-71
2023/10/18 02:28:36;;;;;;;;;;;;;;;4.24;74.24;101350.13;4220866;28;20018;-70
2023/10/18 02:30:39;;;;;;;;;;;;;;;4.25;74.37;101352.66;4220700;28;20385;-71
2023/10/18 02:32:41;;;;;;;;;;;;;;;4.25;74.24;101354.50;4220715;28;20010;-71
2023/10/18 02:34:43;;;;;;;;;;;;;;;4.22;74.19;101349.41;4221128;28;20038;-71
2023/10/18 02:36:48;;;;;;;;;;;;;;;4.23;73.94;101345.72;4220500;28;20002;-71
2023/10/18 02:38:50;;;;;;;;;;;;;;;4.18;74.07;101354.09;4221039;28;20027;-70
2023/10/18 02:40:51;;;;;;;;;;;;;;;4.18;74.04;101354.09;4219518;28;20022;-70
2023/10/18 02:42:55;;;;;;;;;;;;;;;4.17;73.94;101351.56;4220448;27;20030;-70
2023/10/18 02:44:57;;;;;;;;;;;;;;;4.12;73.84;101359.94;4236025;27;20449;-70
2023/10/18 02:47:10;;;;;;;;;;;;;;;4.14;74.02;101352.66;4220882;28;19923;-70
2023/10/18 02:49:11;;;;;;;;;;;;;;;4.14;74.03;101358.84;4220910;28;20027;-70
2023/10/18 02:51:13;;;;;;;;;;;;;;;4.17;73.81;101354.22;4220104;28;20351;-68
2023/10/18 02:53:17;;;;;;;;;;;;;;;4.18;74.09;101358.63;4218615;28;20023;-70
2023/10/18 02:55:19;;;;;;;;;;;;;;;4.17;74.52;101356.91;4221633;28;20030;-70
2023/10/18 02:57:24;;;;;;;;;;;;;;;4.18;75.11;101356.78;4218900;28;20019;-70
2023/10/18 02:59:26;;;;;;;;;;;;;;;4.20;75.20;101354.88;4217596;28;20027;-70
2023/10/18 03:01:28;;;;;;;;;;;;;;;4.21;75.52;101353.88;4217109;28;20290;-70
2023/10/18 03:03:32;;;;;;;;;;;;;;;4.21;75.53;101356.53;4220751;28;20027;-70
2023/10/18 03:05:40;;;;;;;;;;;;;;;4.22;75.45;101352.06;4220617;28;20030;-71
2023/10/18 03:07:42;;;;;;;;;;;;;;;4.19;75.17;101346.97;4221578;28;19970;-70
2023/10/18 03:09:49;;;;;;;;;;;;;;;4.18;75.24;101348.75;4219569;28;20023;-71
2023/10/18 03:11:53;;;;;;;;;;;;;;;4.17;75.33;101346.22;4220275;28;20624;-70
2023/10/18 03:13:57;;;;;;;;;;;;;;;4.17;75.48;101346.22;4220489;28;20063;-70
2023/10/18 03:16:15;;;;;;;;;;;;;;;4.19;75.64;101344.28;4219323;28;20036;-70
2023/10/18 03:18:18;;;;;;;;;;;;;;;4.19;75.63;101347.81;4217680;28;20023;-70
2023/10/18 03:20:23;;;;;;;;;;;;;;;4.20;75.93;101349.50;4218079;28;19938;-70
2023/10/18 03:22:26;;;;;;;;;;;;;;;4.18;75.93;101343.41;4217192;28;20035;-70
2023/10/18 03:24:28;;;;;;;;;;;;;;;4.20;76.18;101338.81;4217672;28;20010;-70
2023/10/18 03:26:35;;;;;;;;;;;;;;;4.21;76.31;101329.81;4218065;28;20031;-70
2023/10/18 03:28:40;;;;;;;;;;;;;;;4.22;76.49;101328.84;4219954;27;20306;-70
2023/10/18 03:30:45;;;;;;;;;;;;;;;4.23;76.32;101329.69;4201580;28;20050;-70
2023/10/18 03:32:49;;;;;;;;;;;;;;;4.23;76.19;101327.88;4218862;28;20010;-70
2023/10/18 03:34:52;;;;;;;;;;;;;;;4.23;76.43;101335.03;4219530;28;20026;-70
2023/10/18 03:36:54;;;;;;;;;;;;;;;4.23;76.21;101332.34;4219631;28;20023;-70
2023/10/18 03:39:00;;;;;;;;;;;;;;;4.24;76.26;101331.41;4217781;28;20469;-68
2023/10/18 03:41:07;;;;;;;;;;;;;;;4.23;76.08;101327.00;4217053;28;20026;-70
2023/10/18 03:43:10;;;;;;;;;;;;;;;4.24;76.40;101331.41;4217366;28;20027;-70
2023/10/18 03:45:13;;;;;;;;;;;;;;;4.23;76.32;101338.59;4220121;28;20014;-71
2023/10/18 03:47:24;;;;;;;;;;;;;;;4.22;76.07;101338.69;4219276;28;20027;-71
2023/10/18 03:49:31;;;;;;;;;;;;;;;4.23;76.22;101335.03;4218345;28;19923;-70
2023/10/18 03:51:36;;;;;;;;;;;;;;;4.22;76.40;101339.53;4234249;27;20018;-71
2023/10/18 03:53:40;;;;;;;;;;;;;;;4.21;75.93;101331.63;4219278;28;20023;-70
2023/10/18 03:55:45;;;;;;;;;;;;;;;4.20;75.68;101322.78;4216814;28;20014;-70
2023/10/18 03:57:50;;;;;;;;;;;;;;;4.21;75.77;101332.47;4216616;28;20025;-70
2023/10/18 03:59:57;;;;;;;;;;;;;;;4.18;75.44;101326.53;4218623;28;20011;-71
2023/10/18 04:02:07;;;;;;;;;;;;;;;4.19;75.66;101318.38;4216145;28;20043;-71
2023/10/18 04:04:17;;;;;;;;;;;;;;;4.18;75.65;101313.16;4217479;28;20034;-70
2023/10/18 04:06:23;;;;;;;;;;;;;;;4.19;75.59;101320.22;4219827;28;20019;-70
2023/10/18 04:08:27;;;;;;;;;;;;;;;4.18;75.64;101314.00;4218464;28;20034;-70
2023/10/18 04:10:31;;;;;;;;;;;;;;;4.17;75.69;101312.31;4216807;28;20371;-69
2023/10/18 04:12:32;;;;;;;;;;;;;;;4.15;75.42;101319.59;4217001;28;20430;-70
2023/10/18 04:14:34;;;;;;;;;;;;;;;4.15;75.63;101312.44;4219711;28;20019;-70
2023/10/18 04:16:36;;;;;;;;;;;;;;;4.13;75.39;101314.38;4220374;28;20500;-70
2023/10/18 04:18:41;;;;;;;;;;;;;;;4.13;75.34;101316.19;4219983;28;20007;-70
2023/10/18 04:20:43;;;;;;;;;;;;;;;4.10;75.46;101309.25;4219271;28;20026;-70
2023/10/18 04:22:46;;;;;;;;;;;;;;;4.10;75.53;101303.91;4218334;28;20042;-70
2023/10/18 04:24:50;;;;;;;;;;;;;;;4.10;75.64;101306.59;4221088;28;19970;-70
2023/10/18 04:26:56;;;;;;;;;;;;;;;4.07;75.53;101301.47;4237100;27;20366;-70
2023/10/18 04:29:01;;;;;;;;;;;;;;;4.05;75.67;101295.41;4222429;28;20466;-70
2023/10/18 04:31:04;;;;;;;;;;;;;;;4.06;75.54;101298.94;4218472;28;19931;-70
2023/10/18 04:33:24;;;;;;;;;;;;;;;4.05;75.59;101295.41;4219770;28;19991;-71
2023/10/18 04:35:29;;;;;;;;;;;;;;;4.05;75.86;101289.22;4219069;28;20011;-70
2023/10/18 04:37:32;;;;;;;;;;;;;;;4.06;75.68;101293.59;4218487;28;20482;-70
2023/10/18 04:39:35;;;;;;;;;;;;;;;4.04;75.75;101299.03;4218879;28;20023;-70
2023/10/18 04:41:37;;;;;;;;;;;;;;;4.04;75.87;101292.88;4218122;28;19932;-70
2023/10/18 04:43:42;;;;;;;;;;;;;;;4.04;75.91;101282.16;4185449;28;20007;-71
2023/10/18 04:45:50;;;;;;;;;;;;;;;4.05;76.10;101281.22;4217698;28;20018;-70
2023/10/18 04:47:58;;;;;;;;;;;;;;;4.04;76.06;101283.00;4216915;28;20038;-70
2023/10/18 04:50:02;;;;;;;;;;;;;;;4.07;76.72;101284.59;4219794;28;20027;-70
2023/10/18 04:52:06;;;;;;;;;;;;;;;4.08;76.68;101284.47;4218397;28;19924;-70
2023/10/18 04:54:09;;;;;;;;;;;;;;;4.09;76.82;101283.53;4218538;28;19989;-70
2023/10/18 04:56:11;;;;;;;;;;;;;;;4.06;76.48;101278.41;4218917;28;20014;-70
2023/10/18 04:58:12;;;;;;;;;;;;;;;4.06;76.11;101283.75;4219642;28;20026;-70
2023/10/18 05:00:35;;;;;;;;;;;;;;;4.04;76.09;101284.84;4217516;28;20023;-70
2023/10/18 05:02:38;;;;;;;;;;;;;;;4.04;75.72;101291.03;4218883;28;20023;-70
2023/10/18 05:04:40;;;;;;;;;;;;;;;4.02;75.52;101292.13;4219123;28;20023;-69
2023/10/18 05:06:42;;;;;;;;;;;;;;;4.02;75.59;101292.13;4216573;28;20050;-70
2023/10/18 05:08:48;;;;;;;;;;;;;;;4.01;75.70;101293.94;4218385;28;20019;-70
2023/10/18 05:10:52;;;;;;;;;;;;;;;4.01;75.68;101298.44;4217723;28;20035;-70
2023/10/18 05:13:01;;;;;;;;;;;;;;;3.98;75.36;101296.84;4217815;28;19973;-70
2023/10/18 05:15:16;;;;;;;;;;;;;;;4.00;75.41;101296.75;4213441;28;20007;-70
2023/10/18 05:17:23;;;;;;;;;;;;;;;3.97;75.21;101288.00;4219210;28;20038;-69
2023/10/18 05:19:28;;;;;;;;;;;;;;;3.94;75.49;101282.91;4219485;28;20019;-69
2023/10/18 05:21:31;;;;;;;;;;;;;;;3.89;75.50;101276.22;4219326;28;20026;-69
2023/10/18 05:23:34;;;;;;;;;;;;;;;3.94;75.62;101282.91;4218814;28;20022;-69
2023/10/18 05:25:45;;;;;;;;;;;;;;;3.94;75.82;101279.38;4218271;28;20034;-70
2023/10/18 05:27:59;;;;;;;;;;;;;;;3.89;75.73;101285.09;4219805;28;20014;-70
2023/10/18 05:30:08;;;;;;;;;;;;;;;3.89;76.00;101290.44;4218672;28;20024;-69
2023/10/18 05:32:13;;;;;;;;;;;;;;;3.87;76.19;101288.84;4218429;28;20038;-69
2023/10/18 05:34:18;;;;;;;;;;;;;;;3.87;76.11;101297.72;4219603;28;19927;-69
2023/10/18 05:36:42;;;;;;;;;;;;;;;3.86;76.16;101295.16;4218556;28;20024;-69
2023/10/18 05:38:48;;;;;;;;;;;;;;;3.85;76.16;101294.31;4219143;28;20026;-70
2023/10/18 05:40:56;;;;;;;;;;;;;;;3.87;76.50;101294.19;4218100;28;20026;-70
2023/10/18 05:43:00;;;;;;;;;;;;;;;3.86;76.17;101301.34;4217880;28;20022;-70
2023/10/18 05:45:03;;;;;;;;;;;;;;;3.84;76.10;101295.28;4218435;28;20014;-70
2023/10/18 05:47:06;;;;;;;;;;;;;;;3.79;75.77;101301.00;4221224;28;20039;-70
2023/10/18 05:49:15;;;;;;;;;;;;;;;3.78;75.92;101295.75;4220259;28;20015;-70
2023/10/18 05:51:28;;;;;;;;;;;;;;;3.79;75.71;101303.66;4221269;28;20372;-70
2023/10/18 05:53:31;;;;;;;;;;;;;;;3.79;76.04;101298.31;4221892;28;20006;-71
2023/10/18 05:55:34;;;;;;;;;;;;;;;3.79;76.03;101305.47;4220077;28;20371;-70
2023/10/18 05:57:37;;;;;;;;;;;;;;;3.79;76.08;101301.00;4220735;28;20462;-70
2023/10/18 05:59:41;;;;;;;;;;;;;;;3.78;76.30;101298.44;4220447;28;20458;-70
2023/10/18 06:01:43;;;;;;;;;;;;;;;3.78;76.47;101301.13;4220088;28;20023;-69
2023/10/18 06:03:45;;;;;;;;;;;;;;;3.77;76.54;101299.41;4220977;28;20015;-70
2023/10/18 06:05:51;;;;;;;;;;;;;;;3.76;76.44;101293.22;4221679;28;19963;-70
2023/10/18 06:07:54;;;;;;;;;;;;;;;3.80;76.96;101291.16;4222684;28;20027;-69
2023/10/18 06:09:59;;;;;;;;;;;;;;;3.82;76.97;101291.88;4220298;28;20572;-70
2023/10/18 06:12:01;;;;;;;;;;;;;;;3.84;77.51;101283.72;4220080;28;20011;-69
2023/10/18 06:14:05;;;;;;;;;;;;;;;3.86;77.78;101281.81;4220224;28;20181;-70
2023/10/18 06:16:19;;;;;;;;;;;;;;;3.85;77.80;101278.25;4219543;28;20298;-70
2023/10/18 06:18:26;;;;;;;;;;;;;;;3.90;77.85;101284.13;4221907;28;20019;-70
2023/10/18 06:20:28;;;;;;;;;;;;;;;3.93;78.00;101285.69;4221320;28;20016;-69
2023/10/18 06:22:39;;;;;;;;;;;;;;;3.95;78.21;101283.75;4219752;28;20030;-68
2023/10/18 06:24:45;;;;;;;;;;;;;;;3.96;78.42;101283.63;4219694;28;20022;-69
2023/10/18 06:26:52;;;;;;;;;;;;;;;4.03;78.65;101280.47;4219243;28;20019;-69
2023/10/18 06:28:54;;;;;;;;;;;;;;;4.07;79.00;101284.59;4217448;28;20011;-69
2023/10/18 06:30:56;;;;;;;;;;;;;;;4.10;78.85;101285.19;4221670;28;20027;-69
2023/10/18 06:33:05;;;;;;;;;;;;;;;4.18;79.38;101286.44;4221975;28;20023;-69
2023/10/18 06:35:15;;;;;;;;;;;;;;;4.24;79.82;101273.41;4222055;28;20006;-69
2023/10/18 06:37:21;;;;;;;;;;;;;;;4.30;80.13;101267.56;4222693;28;20641;-69
2023/10/18 06:39:34;;;;;;;;;;;;;;;4.38;80.35;101269.63;4221388;28;20238;-69
2023/10/18 06:41:37;;;;;;;;;;;;;;;4.43;80.54;101267.44;4221677;28;19991;-69
2023/10/18 06:43:39;;;;;;;;;;;;;;;4.49;80.51;101271.44;4221594;28;20034;-69
2023/10/18 06:45:42;;;;;;;;;;;;;;;4.53;80.76;101267.56;4221241;28;20023;-69
2023/10/18 06:47:45;;;;;;;;;;;;;;;4.56;80.53;101261.97;4222226;28;20363;-69
2023/10/18 06:49:47;;;;;;;;;;;;;;;4.59;80.39;101263.50;4221215;28;20022;-69
2023/10/18 06:51:50;;;;;;;;;;;;;;;4.64;80.87;101262.19;4221868;28;20543;-69
2023/10/18 06:53:54;;;;;;;;;;;;;;;4.68;80.78;101262.75;4222029;28;20014;-69
2023/10/18 06:55:58;;;;;;;;;;;;;;;4.72;81.01;101266.03;4222281;28;20027;-69
2023/10/18 06:58:11;;;;;;;;;;;;;;;4.76;81.06;101264.81;4221428;28;19928;-69
2023/10/18 07:00:15;;;;;;;;;;;;;;;4.81;81.29;101266.16;4221574;28;20044;-69
2023/10/18 07:02:17;;;;;;;;;;;;;;;4.86;81.40;101266.59;4221414;28;20010;-69
2023/10/18 07:04:27;;;;;;;;;;;;;;;4.92;81.27;101269.75;4220776;28;20372;-68
2023/10/18 07:06:29;;;;;;;;;;;;;;;4.96;81.49;101273.88;4221154;28;20465;-70
2023/10/18 07:08:33;;;;;;;;;;;;;;;5.01;81.38;101280.53;4220779;28;20019;-69
2023/10/18 07:13:16;;;;;;;;;;;;;;;5.12;81.82;101281.47;4226273;27;19930;-70
2023/10/18 07:15:22;;;;;;;;;;;;;;;5.16;81.91;101278.41;4226507;28;20010;-70
2023/10/18 07:17:25;;;;;;;;;;;;;;;5.22;81.89;101274.38;4224759;28;20461;-68
2023/10/18 07:19:26;;;;;;;;;;;;;;;5.27;81.81;101282.03;4224557;28;20047;-71
2023/10/18 07:21:32;;;;;;;;;;;;;;;5.31;81.81;101281.63;4224922;28;20023;-68
2023/10/18 07:23:37;;;;;;;;;;;;;;;5.36;81.81;101270.50;4224315;28;20342;-68
2023/10/18 07:25:39;;;;;;;;;;;;;;;5.40;82.01;101263.94;4224518;28;20023;-68
2023/10/18 07:27:41;;;;;;;;;;;;;;;5.46;82.15;101268.75;4224931;28;20473;-69
2023/10/18 07:29:50;;;;;;;;;;;;;;;5.51;82.07;101253.13;4225054;28;20015;-68
2023/10/18 07:31:53;;;;;;;;;;;;;;;5.56;82.42;101258.09;4223237;28;20019;-69
2023/10/18 07:34:02;;;;;;;;;;;;;;;5.60;82.46;101255.03;4224352;28;19924;-69
2023/10/18 07:36:08;;;;;;;;;;;;;;;5.66;82.51;101256.34;4224647;28;20032;-68
2023/10/18 07:38:10;;;;;;;;;;;;;;;5.71;82.20;101264.81;4224411;28;20023;-69
2023/10/18 07:40:20;;;;;;;;;;;;;;;5.77;82.12;101269.66;4224118;28;20433;-69
2023/10/18 07:42:22;;;;;;;;;;;;;;;5.84;81.66;101261.94;4224723;28;20202;-68
2023/10/18 07:44:24;;;;;;;;;;;;;;;5.90;81.97;101249.84;4224819;28;20015;-69
2023/10/18 07:46:28;;;;;;;;;;;;;;;5.96;81.32;101251.97;4224196;28;20423;-68
2023/10/18 07:48:31;;;;;;;;;;;;;;;6.01;81.06;101241.72;4224038;28;20022;-68
2023/10/18 07:50:41;;;;;;;;;;;;;;;6.07;81.73;101240.34;4224579;28;20019;-69
2023/10/18 07:52:43;;;;;;;;;;;;;;;6.13;81.38;101240.66;4223693;28;20029;-68
2023/10/18 07:54:46;;;;;;;;;;;;;;;6.20;81.69;101232.06;4224731;28;19928;-68
2023/10/18 07:56:50;;;;;;;;;;;;;;;6.27;81.58;101241.22;4224155;28;20015;-69
2023/10/18 07:58:53;;;;;;;;;;;;;;;6.34;81.21;101230.81;4224249;28;20015;-68
2023/10/18 08:03:17;;;;;;;;;;;;;;;6.47;79.02;101228.72;4224188;28;20047;-69
2023/10/18 08:05:19;;;;;;;;;;;;;;;6.55;78.66;101230.72;4218923;28;20359;-68
2023/10/18 08:07:27;;;;;;;;;;;;;;;6.62;77.74;101229.19;4223529;28;20015;-70
2023/10/18 08:09:28;;;;;;;;;;;;;;;6.70;77.22;101226.66;4224329;28;20014;-69
2023/10/18 08:11:32;;;;;;;;;;;;;;;6.79;76.81;101224.97;4223599;28;20036;-70
2023/10/18 08:13:45;;;;;;;;;;;;;;;6.88;76.20;101224.13;4223610;28;20018;-69
2023/10/18 08:15:52;;;;;;;;;;;;;;;6.98;75.27;101224.97;4222805;28;19924;-69
2023/10/18 08:18:00;;;;;;;;;;;;;;;7.09;74.51;101221.28;4224113;28;20461;-68
2023/10/18 08:22:27;;;;;;;;;;;;;;;7.32;72.77;101212.91;4224136;28;20449;-69
2023/10/18 08:24:28;;;;;;;;;;;;;;;7.44;72.19;101211.75;4212354;28;20416;-70
2023/10/18 08:26:45;;;;;;;;;;;;;;;7.54;72.21;101211.75;4212984;28;19932;-69
2023/10/18 08:28:47;;;;;;;;;;;;;;;7.67;71.53;101209.56;4211148;28;20383;-69
2023/10/18 08:33:08;;;;;;;;;;;;;;;7.91;71.87;101200.97;4212821;28;20038;-69
2023/10/18 08:35:16;;;;;;;;;;;;;;;8.04;71.42;101208.72;4212016;28;20478;-70
2023/10/18 08:37:18;;;;;;;;;;;;;;;8.16;71.49;101209.34;4213246;28;20011;-70
2023/10/18 08:39:25;;;;;;;;;;;;;;;8.27;71.38;101209.16;4212836;28;20466;-70
2023/10/18 08:41:32;;;;;;;;;;;;;;;8.40;71.65;101198.03;4211900;28;20011;-70
2023/10/18 08:43:33;;;;;;;;;;;;;;;8.54;71.24;101209.31;4213200;28;20470;-69
2023/10/18 08:45:44;;;;;;;;;;;;;;;8.65;71.08;101201.88;4212439;28;19928;-69
2023/10/18 08:47:49;;;;;;;;;;;;;;;8.78;71.02;101212.25;4213131;28;20019;-69
2023/10/18 08:49:52;;;;;;;;;;;;;;;8.90;71.05;101204.75;4211190;28;20043;-70
2023/10/18 08:51:56;;;;;;;;;;;;;;;9.01;70.78;101201.84;4211862;28;20011;-69
2023/10/18 08:53:57;;;;;;;;;;;;;;;9.13;70.35;101205.13;4212397;28;20034;-69
2023/10/18 08:55:59;;;;;;;;;;;;;;;9.25;70.18;101208.44;4212717;28;20027;-70
2023/10/18 08:58:08;;;;;;;;;;;;;;;9.35;70.10;101206.47;4212727;28;20463;-69
2023/10/18 09:01:02;;;;;;;;;;;;;;;9.47;69.76;101199.00;4211701;28;20020;-70
2023/10/18 09:02:39;;;;;;;;;;;;;;;9.60;69.21;101200.41;4211373;28;20023;-67
2023/10/18 09:04:45;;;;;;;;;;;;;;;9.69;68.89;101197.59;4212527;28;19924;-69
2023/10/18 09:06:46;;;;;;;;;;;;;;;9.79;68.55;101193.94;4212166;28;20014;-70
2023/10/18 09:09:00;;;;;;;;;;;;;;;9.86;67.99;101185.03;4213051;28;19981;-70
2023/10/18 09:11:04;;;;;;;;;;;;;;;9.95;67.53;101188.63;4212501;28;20046;-69
2023/10/18 09:13:32;;;;;;;;;;;;;;;10.01;67.16;101187.13;4212032;28;20032;-68
2023/10/18 09:15:35;;;;;;;;;;;;;;;10.07;66.88;101176.53;4212788;28;20015;-67
2023/10/18 09:17:37;;;;;;;;;;;;;;;10.13;66.52;101179.59;4211909;28;20019;-67
2023/10/18 09:19:42;;;;;;;;;;;;;;;10.17;66.33;101178.25;4212791;28;20000;-67
2023/10/18 09:21:50;;;;;;;;;;;;;;;10.22;66.31;101173.19;4212834;28;20023;-67
2023/10/18 09:23:59;;;;;;;;;;;;;;;10.26;66.17;101179.97;4211506;28;20261;-68
2023/10/18 09:26:07;;;;;;;;;;;;;;;10.28;66.07;101173.41;4212323;28;20023;-68
2023/10/18 09:28:10;;;;;;;;;;;;;;;10.32;65.79;101168.50;4212112;28;20011;-68
2023/10/18 09:30:18;;;;;;;;;;;;;;;10.35;65.56;101167.38;4210378;28;20011;-67
2023/10/18 09:32:32;;;;;;;;;;;;;;;10.38;65.30;101170.59;4211406;28;20006;-67
2023/10/18 09:34:34;;;;;;;;;;;;;;;10.41;65.22;101156.75;4211274;28;20018;-67
2023/10/18 09:36:39;;;;;;;;;;;;;;;10.43;65.27;101154.72;4210459;28;20577;-67
2023/10/18 09:38:41;;;;;;;;;;;;;;;10.48;65.48;101150.69;4211223;28;20050;-68
2023/10/18 09:40:47;;;;;;;;;;;;;;;10.52;65.27;101152.06;4211585;28;19958;-67
2023/10/18 09:42:50;;;;;;;;;;;;;;;10.57;65.50;101155.09;4211185;28;19975;-67
2023/10/18 09:44:52;;;;;;;;;;;;;;;10.62;65.22;101150.84;4212088;28;20023;-67
2023/10/18 09:46:54;;;;;;;;;;;;;;;10.66;65.26;101148.69;4211367;28;20034;-67
2023/10/18 09:48:57;;;;;;;;;;;;;;;10.73;65.28;101162.38;4212591;28;20024;-67
2023/10/18 09:51:06;;;;;;;;;;;;;;;10.77;65.00;101151.06;4211993;28;20006;-67
2023/10/18 09:53:08;;;;;;;;;;;;;;;10.82;64.97;101154.09;4211241;28;20019;-67
2023/10/18 09:55:16;;;;;;;;;;;;;;;10.88;64.86;101157.13;4211487;28;20027;-69
2023/10/18 09:57:24;;;;;;;;;;;;;;;10.93;64.92;101152.91;4211909;28;20010;-70
2023/10/18 09:59:27;;;;;;;;;;;;;;;10.98;64.58;101153.22;4203544;28;20018;-69
2023/10/18 10:01:29;;;;;;;;;;;;;;;11.03;64.58;101147.31;4210258;28;20398;-69
2023/10/18 10:03:32;;;;;;;;;;;;;;;11.07;64.70;101148.69;4212070;28;20007;-67
2023/10/18 10:05:41;;;;;;;;;;;;;;;11.11;64.34;101141.94;4211895;28;20030;-68
2023/10/18 10:07:42;;;;;;;;;;;;;;;11.15;64.35;101140.56;4211429;28;20015;-67
2023/10/18 10:09:46;;;;;;;;;;;;;;;11.20;64.13;101141.91;4211279;28;20014;-69
2023/10/18 10:11:48;;;;;;;;;;;;;;;11.25;64.37;101136.81;4211647;28;20011;-68
2023/10/18 10:13:51;;;;;;;;;;;;;;;11.28;64.07;101140.03;4210852;28;20058;-67
2023/10/18 10:15:54;;;;;;;;;;;;;;;11.32;64.36;101125.16;4211181;28;20022;-68
2023/10/18 10:18:00;;;;;;;;;;;;;;;11.37;64.08;101124.63;4211262;28;20019;-67
2023/10/18 10:20:10;;;;;;;;;;;;;;;11.41;63.78;101126.00;4210555;28;20023;-68
2023/10/18 10:22:12;;;;;;;;;;;;;;;11.46;63.79;101130.88;4210068;28;20030;-68
2023/10/18 10:24:33;;;;;;;;;;;;;;;11.50;63.96;101118.69;4208741;28;20462;-67
2023/10/18 10:26:39;;;;;;;;;;;;;;;11.56;63.66;101122.56;4211235;28;20020;-68
2023/10/18 10:31:06;;;;;;;;;;;;;;;11.64;63.60;101120.66;4211223;28;20374;-67
2023/10/18 10:33:12;;;;;;;;;;;;;;;11.69;63.28;101114.72;4211925;28;20018;-67
2023/10/18 10:35:15;;;;;;;;;;;;;;;11.74;63.28;101115.06;4211013;28;19970;-67
2023/10/18 10:37:18;;;;;;;;;;;;;;;11.78;63.43;101113.66;4210803;28;20012;-67
2023/10/18 10:39:23;;;;;;;;;;;;;;;11.83;63.19;101111.31;4210776;28;20026;-68
2023/10/18 10:41:30;;;;;;;;;;;;;;;11.88;62.95;101113.44;4210693;28;20027;-68
2023/10/18 10:43:39;;;;;;;;;;;;;;;11.92;62.53;101104.00;4210149;28;19932;-68
2023/10/18 10:45:43;;;;;;;;;;;;;;;11.97;62.63;101100.75;4210844;28;20032;-68
2023/10/18 10:47:50;;;;;;;;;;;;;;;12.01;62.17;101099.41;4210127;28;20505;-68
2023/10/18 10:49:58;;;;;;;;;;;;;;;12.05;61.99;101089.88;4210058;28;20351;-68
2023/10/18 10:52:04;;;;;;;;;;;;;;;12.10;61.81;101092.91;4226078;28;20027;-67
2023/10/18 10:54:06;;;;;;;;;;;;;;;12.14;61.51;101082.56;4210491;28;20018;-68
2023/10/18 10:56:16;;;;;;;;;;;;;;;12.18;61.50;101086.59;4209933;28;20020;-67
2023/10/18 10:58:18;;;;;;;;;;;;;;;12.21;61.08;101084.38;4210125;28;20014;-67
2023/10/18 11:00:36;;;;;;;;;;;;;;;12.25;60.99;101082.16;4210680;28;20023;-67